Time;durP1;ratioP1;P1;durP2;ratioP2;P2;SDS_P1;SDS_P2;PMS_P1;PMS_P2;Temp;Humidity;BMP_temperature;BMP_pressure;BME280_temperature;BME280_humidity;BME280_pressure;Samples;Min_cycle;Max_cycle;Signal;HPM_P1;HPM_P2
2023/07/19 00:03:03;;;;;;;7.07;5.63;;;;;;;23.68;60.10;98490.66;6948090;28;20323;-82
2023/07/19 00:10:42;;;;;;;7.27;6.00;;;;;;;23.55;61.18;98470.19;6976031;28;20224;-83
2023/07/19 00:14:05;;;;;;;7.97;6.13;;;;;;;23.89;59.36;98457.06;6975355;28;20288;-82
2023/07/19 00:17:28;;;;;;;9.20;6.33;;;;;;;23.82;59.69;98462.09;6975208;28;20601;-82
2023/07/19 00:20:50;;;;;;;8.17;6.17;;;;;;;23.61;59.58;98473.72;6975974;28;20222;-82
2023/07/19 00:24:11;;;;;;;8.17;6.10;;;;;;;23.59;60.25;98459.44;6967822;28;20290;-83
2023/07/19 00:27:33;;;;;;;6.53;5.93;;;;;;;23.86;59.80;98457.63;6968713;28;20571;-82
2023/07/19 00:31:00;;;;;;;8.70;6.70;;;;;;;23.95;59.09;98466.06;6973312;28;20283;-82
2023/07/19 00:34:23;;;;;;;9.17;6.50;;;;;;;23.30;61.58;98461.47;6973236;28;20194;-83
2023/07/19 00:37:44;;;;;;;8.90;6.63;;;;;;;23.34;61.70;98470.75;6948696;28;20209;-82
2023/07/19 00:41:06;;;;;;;7.30;6.50;;;;;;;23.52;60.91;98459.78;6945287;28;20226;-82
2023/07/19 00:48:44;;;;;;;7.37;5.73;;;;;;;23.79;59.93;98446.16;6953768;28;20696;-82
2023/07/19 00:52:08;;;;;;;6.80;6.13;;;;;;;23.72;59.68;98465.00;6973279;28;20210;-83
2023/07/19 00:55:30;;;;;;;7.70;6.00;;;;;;;23.79;59.07;98459.13;6972488;28;20219;-82
2023/07/19 00:58:53;;;;;;;6.03;5.33;;;;;;;23.95;58.52;98474.34;6972963;28;20637;-82
2023/07/19 01:02:15;;;;;;;6.90;6.20;;;;;;;23.14;60.54;98469.06;6973306;28;20575;-82
2023/07/19 01:05:37;;;;;;;9.27;7.53;;;;;;;23.00;62.16;98470.88;6973031;28;20209;-82
2023/07/19 01:09:00;;;;;;;7.40;6.40;;;;;;;23.51;60.88;98454.56;6972969;28;20272;-82
2023/07/19 01:12:21;;;;;;;7.87;6.20;;;;;;;23.35;60.50;98429.19;6972916;28;20746;-82
2023/07/19 01:15:43;;;;;;;8.93;6.47;;;;;;;23.13;61.60;98469.38;6971967;28;20213;-83
2023/07/19 01:19:04;;;;;;;9.77;7.00;;;;;;;23.18;61.89;98463.84;6972005;28;20688;-82
2023/07/19 01:22:31;;;;;;;8.73;6.53;;;;;;;23.38;61.01;98434.13;6971463;28;20290;-83
2023/07/19 01:25:55;;;;;;;8.07;6.30;;;;;;;23.73;59.81;98474.09;6971227;28;20282;-82
2023/07/19 01:29:17;;;;;;;7.20;6.50;;;;;;;23.67;59.71;98478.03;6971519;28;20239;-82
2023/07/19 01:32:39;;;;;;;8.43;6.60;;;;;;;23.48;59.69;98471.69;6971779;28;20571;-82
2023/07/19 01:36:00;;;;;;;8.93;6.60;;;;;;;23.59;60.20;98481.44;6971250;28;20212;-82
2023/07/19 01:39:23;;;;;;;7.53;6.07;;;;;;;23.82;59.09;98469.53;6971437;28;20275;-82
2023/07/19 01:42:44;;;;;;;7.13;6.03;;;;;;;23.76;59.62;98474.31;6971149;28;20678;-82
2023/07/19 01:46:06;;;;;;;6.73;6.10;;;;;;;23.77;60.14;98472.38;6970185;28;20342;-82
2023/07/19 01:49:27;;;;;;;9.40;6.57;;;;;;;23.64;59.96;98476.69;6971250;28;20744;-82
2023/07/19 01:52:49;;;;;;;8.07;6.77;;;;;;;23.46;60.28;98447.22;6972393;28;20202;-83
2023/07/19 01:56:13;;;;;;;7.70;6.80;;;;;;;23.25;61.15;98467.84;6969833;28;20298;-83
2023/07/19 01:59:34;;;;;;;13.47;7.13;;;;;;;23.05;61.86;98476.31;6971254;28;20232;-82
2023/07/19 02:02:56;;;;;;;7.70;6.40;;;;;;;23.67;59.46;98470.56;6971157;28;20208;-83
2023/07/19 02:06:17;;;;;;;7.53;6.20;;;;;;;23.64;59.65;98465.66;6969761;28;20727;-83
2023/07/19 02:09:40;;;;;;;8.10;5.90;;;;;;;23.58;59.93;98474.28;6969582;28;20234;-83
2023/07/19 02:13:02;;;;;;;7.87;6.50;;;;;;;23.55;59.63;98486.69;6969762;28;20213;-83
2023/07/19 02:16:24;;;;;;;8.60;6.10;;;;;;;23.72;58.63;98486.22;6969681;28;20272;-83
2023/07/19 02:19:45;;;;;;;9.37;6.10;;;;;;;23.60;58.75;98480.34;6970564;28;20271;-83
2023/07/19 02:23:07;;;;;;;7.33;5.77;;;;;;;23.66;58.31;98470.88;6970136;28;20236;-83
2023/07/19 02:26:28;;;;;;;8.33;6.27;;;;;;;23.32;58.93;98493.09;6969761;28;20209;-83
2023/07/19 02:29:51;;;;;;;9.63;7.10;;;;;;;22.87;60.69;98496.34;6970049;28;20293;-83
2023/07/19 02:33:13;;;;;;;8.40;6.53;;;;;;;22.88;60.90;98486.97;6970200;28;20257;-83
2023/07/19 02:36:35;;;;;;;8.47;6.67;;;;;;;22.79;61.62;98479.66;6969028;28;20204;-83
2023/07/19 02:39:56;;;;;;;9.13;6.77;;;;;;;23.05;61.16;98492.81;6969794;28;20226;-83
2023/07/19 02:43:18;;;;;;;7.37;6.47;;;;;;;22.99;61.05;98493.16;6957529;28;20333;-83
2023/07/19 02:46:41;;;;;;;7.20;5.63;;;;;;;23.19;60.65;98499.28;6941861;28;20726;-82
2023/07/19 02:50:02;;;;;;;6.37;5.77;;;;;;;23.31;60.36;98494.19;6954629;28;20295;-83
2023/07/19 02:53:24;;;;;;;7.10;6.30;;;;;;;23.35;59.77;98497.16;6970389;28;20269;-82
2023/07/19 02:56:45;;;;;;;7.77;6.77;;;;;;;22.98;60.11;98508.03;6969136;28;20748;-82
2023/07/19 03:00:08;;;;;;;8.90;7.13;;;;;;;23.04;60.37;98504.94;6971530;28;20237;-82
2023/07/19 03:03:30;;;;;;;9.57;6.10;;;;;;;23.14;60.31;98484.75;6975565;28;20208;-82
2023/07/19 03:06:52;;;;;;;6.97;6.30;;;;;;;23.23;60.19;98505.00;6958090;28;20208;-82
2023/07/19 03:10:13;;;;;;;6.87;6.17;;;;;;;23.29;60.04;98514.84;6947558;28;20652;-82
2023/07/19 03:13:35;;;;;;;9.97;6.77;;;;;;;22.97;60.41;98512.72;6948423;28;20243;-82
2023/07/19 03:16:57;;;;;;;9.27;7.00;;;;;;;22.98;60.59;98521.78;6950397;28;20237;-82
2023/07/19 03:20:20;;;;;;;7.20;6.50;;;;;;;23.30;59.71;98511.81;6948177;28;20224;-83
2023/07/19 03:23:41;;;;;;;9.77;5.80;;;;;;;23.20;59.13;98527.63;6947866;28;20741;-82
2023/07/19 03:27:03;;;;;;;9.30;6.70;;;;;;;22.92;59.50;98512.78;6947877;28;20211;-82
2023/07/19 03:30:24;;;;;;;7.70;6.90;;;;;;;22.60;59.82;98514.50;6947818;28;20242;-83
2023/07/19 03:33:46;;;;;;;9.93;6.60;;;;;;;22.36;60.22;98444.91;6959145;28;20259;-82
2023/07/19 03:37:08;;;;;;;9.60;6.80;;;;;;;22.92;60.04;98525.69;6975708;28;20670;-82
2023/07/19 03:40:30;;;;;;;6.77;6.10;;;;;;;22.99;59.89;98518.75;6975329;28;20356;-82
2023/07/19 03:43:51;;;;;;;9.20;6.00;;;;;;;22.95;59.70;98527.88;6974217;28;20204;-82
2023/07/19 03:47:13;;;;;;;6.90;6.20;;;;;;;22.84;59.25;98537.34;6978547;28;20289;-82
2023/07/19 03:50:34;;;;;;;9.63;6.50;;;;;;;22.32;60.07;98529.00;6945862;28;20283;-83
2023/07/19 03:53:57;;;;;;;8.47;6.80;;;;;;;22.35;60.81;98540.22;6945977;28;20233;-83
2023/07/19 03:57:19;;;;;;;9.80;6.57;;;;;;;22.62;60.77;98539.75;6944810;28;20200;-82
2023/07/19 04:00:41;;;;;;;7.40;6.70;;;;;;;22.56;61.07;98541.72;6946640;28;20588;-82
2023/07/19 04:04:03;;;;;;;7.67;6.47;;;;;;;22.62;61.25;98537.81;6945725;28;20354;-83
2023/07/19 04:07:24;;;;;;;10.97;6.80;;;;;;;22.56;60.65;98544.47;6946036;28;20249;-83
2023/07/19 04:10:47;;;;;;;7.37;6.03;;;;;;;22.81;60.10;98535.16;6946050;28;20716;-83
2023/07/19 04:14:09;;;;;;;10.23;6.53;;;;;;;22.64;60.01;98546.59;6946044;28;20208;-83
2023/07/19 04:17:30;;;;;;;8.97;6.07;;;;;;;22.58;60.15;98539.50;6946010;28;20569;-82
2023/07/19 04:20:56;;;;;;;7.53;6.40;;;;;;;22.62;60.62;98545.25;6945188;28;20230;-88
2023/07/19 04:24:18;;;;;;;11.60;6.07;;;;;;;22.74;60.19;98545.69;6944968;28;20682;-85
2023/07/19 04:27:41;;;;;;;9.03;6.60;;;;;;;22.82;59.72;98542.28;6941300;28;20343;-84
2023/07/19 04:31:03;;;;;;;7.27;6.13;;;;;;;22.84;59.23;98523.59;6950666;28;20244;-85
2023/07/19 04:34:25;;;;;;;9.13;6.77;;;;;;;21.58;61.29;98471.56;6955361;28;20717;-84
2023/07/19 04:37:46;;;;;;;7.27;6.37;;;;;;;22.49;61.19;98545.91;6961939;28;20738;-84
2023/07/19 04:41:08;;;;;;;9.03;6.97;;;;;;;22.56;60.92;98549.97;6963260;28;20331;-84
2023/07/19 04:44:31;;;;;;;8.53;6.23;;;;;;;22.28;60.44;98526.00;6974805;28;20297;-84
2023/07/19 04:47:52;;;;;;;10.13;6.87;;;;;;;22.61;61.24;98546.34;6946052;28;20700;-83
2023/07/19 04:51:14;;;;;;;8.70;6.10;;;;;;;22.91;60.26;98533.16;6960368;28;20231;-84
2023/07/19 04:54:35;;;;;;;7.90;6.10;;;;;;;22.92;59.42;98511.94;6973070;28;20261;-83
2023/07/19 04:57:57;;;;;;;8.23;7.17;;;;;;;22.37;61.88;98538.00;6973708;28;20256;-83
2023/07/19 05:01:20;;;;;;;11.07;6.80;;;;;;;23.23;60.51;98525.09;6976654;28;20184;-82
2023/07/19 05:04:41;;;;;;;8.13;6.33;;;;;;;23.83;57.89;98518.00;6971887;28;20301;-83
2023/07/19 05:08:04;;;;;;;6.40;5.37;;;;;;;24.40;55.96;98515.75;6971158;28;20795;-84
2023/07/19 05:11:25;;;;;;;6.93;6.23;;;;;;;24.48;56.20;98509.53;6971566;28;20233;-84
2023/07/19 05:14:47;;;;;;;8.10;7.10;;;;;;;24.33;56.10;98504.28;6972450;28;20346;-83
2023/07/19 05:18:10;;;;;;;11.30;6.83;;;;;;;24.51;55.98;98495.16;6959737;28;20312;-84
2023/07/19 05:21:32;;;;;;;7.50;6.00;;;;;;;24.76;54.97;98515.97;6944891;28;20348;-84
2023/07/19 05:24:53;;;;;;;7.63;5.90;;;;;;;24.48;56.52;98504.00;6944077;28;20270;-83
2023/07/19 05:28:15;;;;;;;6.93;6.13;;;;;;;24.91;56.83;98507.41;6944468;28;20363;-83
2023/07/19 05:31:36;;;;;;;7.77;6.00;;;;;;;25.30;55.49;98508.59;6949699;28;20226;-84
2023/07/19 05:34:59;;;;;;;8.10;6.10;;;;;;;25.53;54.43;98503.97;6987409;28;20228;-83
2023/07/19 05:38:21;;;;;;;7.87;5.60;;;;;;;25.71;55.43;98492.78;6999791;28;20307;-84
2023/07/19 05:41:43;;;;;;;6.90;5.80;;;;;;;25.96;54.08;98506.06;6978565;28;20216;-83
2023/07/19 05:45:06;;;;;;;6.63;6.03;;;;;;;26.23;53.16;98511.50;6967577;28;20298;-84
2023/07/19 05:48:27;;;;;;;9.13;5.60;;;;;;;26.33;53.04;98510.44;6970879;28;20237;-82
2023/07/19 05:51:50;;;;;;;6.20;5.50;;;;;;;26.68;52.48;98507.63;6956385;28;20630;-83
2023/07/19 05:55:12;;;;;;;10.43;7.23;;;;;;;26.60;51.53;98508.38;6942454;28;20199;-83
2023/07/19 05:58:33;;;;;;;9.40;6.67;;;;;;;27.09;50.72;98507.34;6942103;28;20284;-86
2023/07/19 06:01:55;;;;;;;7.73;5.43;;;;;;;27.71;49.76;98506.94;6941534;28;20207;-86
2023/07/19 06:05:17;;;;;;;9.63;6.30;;;;;;;28.04;47.94;98490.69;6943586;28;20811;-83
2023/07/19 06:08:41;;;;;;;7.67;5.47;;;;;;;28.71;46.85;98519.56;6941771;28;20266;-83
2023/07/19 06:12:02;;;;;;;7.13;5.53;;;;;;;28.63;45.65;98518.44;6948122;28;20228;-83
2023/07/19 06:15:24;;;;;;;5.83;4.80;;;;;;;28.40;47.07;98494.81;6961978;28;20275;-83
2023/07/19 06:18:46;;;;;;;9.40;5.50;;;;;;;29.06;45.81;98510.00;6997800;28;20227;-84
2023/07/19 06:22:07;;;;;;;6.73;5.00;;;;;;;29.60;43.62;98521.09;6988422;28;20344;-84
2023/07/19 06:25:30;;;;;;;5.70;4.53;;;;;;;29.66;43.20;98525.28;6954922;28;20338;-82
2023/07/19 06:28:52;;;;;;;6.33;4.97;;;;;;;29.67;43.21;98529.69;6960975;28;20318;-84
2023/07/19 06:32:13;;;;;;;5.90;5.30;;;;;;;28.66;45.38;98526.09;6978250;28;20367;-83
2023/07/19 06:35:35;;;;;;;6.93;5.03;;;;;;;29.16;44.57;98524.38;6983409;28;20210;-82
2023/07/19 06:38:56;;;;;;;7.87;5.37;;;;;;;29.73;43.73;98533.91;6949412;28;20302;-82
2023/07/19 06:42:19;;;;;;;13.30;5.67;;;;;;;29.82;43.29;98537.47;6948047;28;20223;-83
2023/07/19 06:45:41;;;;;;;5.67;4.70;;;;;;;30.28;42.43;98528.16;6947305;28;20340;-83
2023/07/19 06:49:02;;;;;;;6.10;5.23;;;;;;;30.10;41.91;98530.28;6944599;28;20367;-83
2023/07/19 06:52:24;;;;;;;5.27;4.77;;;;;;;30.40;41.53;98539.38;6945984;28;20575;-82
2023/07/19 06:55:45;;;;;;;5.93;5.10;;;;;;;29.60;43.06;98534.19;6957641;28;20584;-83
2023/07/19 06:59:08;;;;;;;7.60;4.87;;;;;;;29.73;41.61;98541.47;6997897;28;20361;-82
2023/07/19 07:02:30;;;;;;;9.07;5.13;;;;;;;29.54;42.25;98497.41;7001796;28;20996;-82
2023/07/19 07:05:51;;;;;;;7.63;4.53;;;;;;;30.70;40.10;98549.28;7000536;28;20342;-82
2023/07/19 07:09:14;;;;;;;6.80;4.73;;;;;;;30.64;39.86;98545.91;7001892;28;20362;-81
2023/07/19 07:12:35;;;;;;;40.37;6.37;;;;;;;31.26;39.63;98546.56;7003763;28;20265;-81
2023/07/19 07:15:58;;;;;;;74.50;9.03;;;;;;;30.47;41.13;98548.81;6976456;28;20569;-81
2023/07/19 07:19:20;;;;;;;15.30;4.83;;;;;;;30.58;41.40;98540.84;6974942;28;20280;-82
2023/07/19 07:22:41;;;;;;;6.93;5.33;;;;;;;31.72;38.36;98535.00;6974017;28;20203;-81
2023/07/19 07:26:03;;;;;;;7.37;4.67;;;;;;;29.69;41.07;98526.59;6974125;28;20236;-81
2023/07/19 07:29:24;;;;;;;6.50;4.27;;;;;;;30.87;40.02;98530.44;6974246;28;20234;-82
2023/07/19 07:32:49;;;;;;;7.07;4.80;;;;;;;30.71;38.83;98543.38;6967669;28;20853;-82
2023/07/19 07:36:10;;;;;;;7.83;4.27;;;;;;;32.13;36.43;98545.09;6957688;28;20791;-84
2023/07/19 07:39:32;;;;;;;9.00;4.80;;;;;;;32.02;36.33;98549.53;6946724;28;20374;-82
2023/07/19 07:42:53;;;;;;;9.47;4.30;;;;;;;31.91;37.43;98512.13;6954192;28;20244;-82
2023/07/19 07:46:15;;;;;;;5.53;4.77;;;;;;;31.67;36.24;98546.38;6956403;28;20286;-82
2023/07/19 07:49:37;;;;;;;6.53;4.47;;;;;;;31.96;35.08;98539.78;6978301;28;20315;-82
2023/07/19 07:52:59;;;;;;;5.13;4.30;;;;;;;32.50;34.82;98544.69;6980289;28;20382;-82
2023/07/19 07:56:22;;;;;;;5.43;4.30;;;;;;;31.78;35.43;98539.19;6981764;28;20235;-82
2023/07/19 07:59:43;;;;;;;8.43;4.23;;;;;;;32.72;34.36;98538.53;6975639;28;20593;-80
2023/07/19 08:03:05;;;;;;;7.63;4.73;;;;;;;33.21;34.36;98537.16;6974409;28;20295;-80
2023/07/19 08:06:28;;;;;;;5.20;4.17;;;;;;;33.01;33.34;98538.19;6958811;28;20242;-82
2023/07/19 08:09:49;;;;;;;5.47;4.23;;;;;;;32.97;34.91;98514.91;6959515;28;20232;-82
2023/07/19 08:13:11;;;;;;;6.77;4.60;;;;;;;33.01;33.22;98501.84;6975334;28;20290;-85
2023/07/19 08:16:36;;;;;;;5.07;4.00;;;;;;;33.15;32.67;98533.00;6960075;28;20262;-85
2023/07/19 08:19:57;;;;;;;7.33;4.20;;;;;;;33.25;31.79;98528.84;6980335;28;20237;-83
2023/07/19 08:23:20;;;;;;;4.57;3.63;;;;;;;33.87;31.04;98535.28;6975799;28;20211;-84
2023/07/19 08:26:41;;;;;;;6.87;4.00;;;;;;;32.29;32.08;98530.09;6973226;28;20291;-81
2023/07/19 08:30:05;;;;;;;6.00;4.10;;;;;;;32.46;31.53;98524.22;6977166;28;20698;-82
2023/07/19 08:33:28;;;;;;;4.33;3.80;;;;;;;32.10;31.84;98518.72;6963174;28;20236;-83
2023/07/19 08:36:49;;;;;;;6.83;3.37;;;;;;;32.35;32.58;98531.47;6969511;28;20214;-81
2023/07/19 08:40:14;;;;;;;6.67;3.53;;;;;;;33.23;31.00;98520.81;6958478;28;20307;-81
2023/07/19 08:43:36;;;;;;;5.10;3.97;;;;;;;33.87;30.63;98521.28;6976338;28;20201;-82
2023/07/19 08:46:58;;;;;;;7.20;4.13;;;;;;;33.63;30.29;98503.88;6975642;28;20214;-81
2023/07/19 08:50:20;;;;;;;3.50;3.20;;;;;;;34.40;28.85;98516.91;6957529;28;20755;-81
2023/07/19 08:53:42;;;;;;;5.87;3.40;;;;;;;34.30;29.51;98509.91;6968117;28;20293;-83
2023/07/19 08:57:05;;;;;;;5.50;3.33;;;;;;;34.73;27.69;98506.81;6973006;28;20665;-82
2023/07/19 09:00:28;;;;;;;7.13;3.60;;;;;;;34.62;28.92;98503.00;6973427;28;20734;-81
2023/07/19 09:03:49;;;;;;;5.47;2.73;;;;;;;34.20;26.70;98490.06;6972777;28;20210;-83
2023/07/19 09:07:13;;;;;;;4.23;3.10;;;;;;;33.95;26.63;98466.31;6972336;28;20332;-83
2023/07/19 09:10:34;;;;;;;6.43;3.10;;;;;;;34.47;25.94;98435.84;6978404;28;20751;-83
2023/07/19 09:13:59;;;;;;;5.90;3.03;;;;;;;34.39;26.18;98470.50;6969839;28;20229;-84
2023/07/19 09:17:21;;;;;;;6.37;3.13;;;;;;;34.49;26.86;98469.91;6974015;28;20708;-82
2023/07/19 09:20:42;;;;;;;5.53;2.57;;;;;;;34.51;24.08;98476.75;6943451;28;20357;-83
2023/07/19 09:24:05;;;;;;;4.33;2.63;;;;;;;34.60;22.74;98468.13;6943965;28;20595;-82
2023/07/19 09:27:27;;;;;;;3.73;2.20;;;;;;;34.23;22.92;98462.13;6944959;28;20215;-82
2023/07/19 09:30:59;;;;;;;3.17;2.40;;;;;;;35.01;22.87;98459.75;6988279;28;20277;-82
2023/07/19 09:34:25;;;;;;;3.23;2.50;;;;;;;35.05;21.92;98471.00;6971933;28;20189;-83
2023/07/19 09:37:47;;;;;;;4.90;2.63;;;;;;;34.22;21.20;98435.34;6969580;28;20198;-83
2023/07/19 09:41:08;;;;;;;3.50;2.40;;;;;;;35.04;22.32;98469.41;6970485;28;20256;-83
2023/07/19 09:44:30;;;;;;;3.77;2.40;;;;;;;35.36;21.60;98463.19;6971622;28;20211;-85
2023/07/19 09:47:54;;;;;;;4.37;2.30;;;;;;;35.27;21.96;98468.25;6969889;28;20245;-83
2023/07/19 09:51:16;;;;;;;2.60;2.40;;;;;;;35.11;20.96;98459.13;6951779;28;20284;-84
2023/07/19 09:54:39;;;;;;;3.20;2.30;;;;;;;35.26;21.39;98466.63;6970898;28;20210;-83
2023/07/19 09:58:01;;;;;;;3.90;2.60;;;;;;;35.09;21.64;98463.50;6970234;28;20267;-83
2023/07/19 10:01:23;;;;;;;4.23;2.20;;;;;;;35.57;20.89;98448.69;6965120;28;20269;-83
2023/07/19 10:04:50;;;;;;;3.87;2.33;;;;;;;34.42;21.83;98447.38;6970930;28;20198;-84
2023/07/19 10:08:12;;;;;;;4.33;2.57;;;;;;;35.30;20.46;98450.66;6969595;28;20223;-81
2023/07/19 10:11:33;;;;;;;4.13;2.47;;;;;;;35.24;20.35;98452.16;6971158;28;20313;-86
2023/07/19 10:14:56;;;;;;;3.90;2.33;;;;;;;35.33;20.24;98449.94;6949920;28;20229;-83
2023/07/19 10:18:20;;;;;;;4.33;2.30;;;;;;;35.44;19.16;98408.81;6970134;28;20313;-83
2023/07/19 10:22:02;;;;;;;4.73;2.30;;;;;;;35.99;19.38;98449.34;6970488;28;20202;-83
2023/07/19 10:25:27;;;;;;;6.50;2.50;;;;;;;35.35;20.12;98449.53;6970110;28;20194;-83
2023/07/19 10:29:00;;;;;;;2.30;2.10;;;;;;;36.29;19.54;98447.38;6972227;28;20237;-82
2023/07/19 10:32:22;;;;;;;5.00;2.00;;;;;;;35.82;18.84;98445.13;6972034;28;20210;-84
2023/07/19 10:35:44;;;;;;;2.60;2.37;;;;;;;36.80;18.09;98448.41;6971773;28;20260;-83
2023/07/19 10:39:07;;;;;;;4.50;2.20;;;;;;;35.41;19.33;98420.00;6971133;28;20226;-83
2023/07/19 10:42:28;;;;;;;4.17;2.20;;;;;;;35.34;19.65;98434.72;6971601;28;20256;-84
2023/07/19 10:45:50;;;;;;;5.80;2.10;;;;;;;33.60;20.95;98426.31;6952705;28;20293;-84
2023/07/19 10:49:11;;;;;;;5.20;2.20;;;;;;;34.79;20.13;98421.28;6955534;28;20317;-84
2023/07/19 10:52:35;;;;;;;5.13;1.97;;;;;;;35.59;20.29;98427.50;6969380;28;20441;-89
2023/07/19 10:55:59;;;;;;;3.90;2.37;;;;;;;35.32;20.02;98430.69;6979134;28;20209;-84
2023/07/19 10:59:21;;;;;;;2.63;2.40;;;;;;;36.12;19.62;98429.09;6960560;28;21027;-80
2023/07/19 11:02:42;;;;;;;2.40;2.20;;;;;;;35.85;19.26;98419.09;6960426;28;20251;-81
2023/07/19 11:06:07;;;;;;;2.27;2.00;;;;;;;36.72;19.14;98413.00;6955014;28;20286;-80
2023/07/19 11:09:29;;;;;;;7.30;2.00;;;;;;;35.82;20.03;98416.22;6942179;28;20223;-85
2023/07/19 11:12:52;;;;;;;4.23;2.30;;;;;;;36.11;19.66;98419.06;6951965;28;20310;-81
2023/07/19 11:16:13;;;;;;;2.20;2.00;;;;;;;35.48;20.06;98409.69;6966270;28;20283;-81
2023/07/19 11:19:37;;;;;;;5.13;2.10;;;;;;;35.00;20.08;98334.00;6972030;28;20263;-81
2023/07/19 11:23:07;;;;;;;4.97;2.27;;;;;;;35.55;20.14;98412.59;6973989;28;20291;-85
2023/07/19 11:26:29;;;;;;;3.30;2.30;;;;;;;35.74;19.53;98400.50;6974982;28;20209;-80
2023/07/19 11:29:55;;;;;;;4.70;2.10;;;;;;;35.34;20.51;98400.25;6972899;28;20287;-80
2023/07/19 11:33:17;;;;;;;4.83;2.07;;;;;;;34.95;20.87;98388.38;6974123;28;20276;-81
2023/07/19 11:36:40;;;;;;;3.53;1.90;;;;;;;34.64;20.57;98397.00;6972497;28;20637;-80
2023/07/19 11:40:05;;;;;;;2.77;2.20;;;;;;;34.85;21.14;98407.81;6965720;28;20226;-82
2023/07/19 11:43:26;;;;;;;2.83;2.20;;;;;;;33.42;22.03;98352.41;6973250;28;20226;-79
2023/07/19 11:46:50;;;;;;;4.23;2.37;;;;;;;34.39;21.85;98380.91;6974003;28;20359;-81
2023/07/19 11:50:12;;;;;;;3.40;2.20;;;;;;;35.08;21.06;98375.78;6974528;28;20241;-81
2023/07/19 11:53:34;;;;;;;3.77;2.47;;;;;;;34.52;20.56;98327.16;6974972;28;20226;-81
2023/07/19 11:56:55;;;;;;;3.13;2.03;;;;;;;35.66;19.15;98362.28;6976109;28;20249;-82
2023/07/19 12:00:19;;;;;;;5.03;2.80;;;;;;;35.62;21.89;98361.41;6974441;28;20355;-82
2023/07/19 12:03:42;;;;;;;4.20;2.53;;;;;;;35.20;21.07;98353.13;6966078;28;20205;-81
2023/07/19 12:07:04;;;;;;;2.73;2.00;;;;;;;35.46;21.19;98324.31;6968970;28;20206;-81
2023/07/19 12:10:27;;;;;;;4.43;2.10;;;;;;;34.92;21.39;98357.50;6975518;28;20311;-81
2023/07/19 12:13:49;;;;;;;5.83;2.33;;;;;;;35.27;20.50;98344.88;6975984;28;20241;-82
2023/07/19 12:17:10;;;;;;;6.13;2.23;;;;;;;35.69;20.81;98337.06;6974280;28;20202;-81
2023/07/19 12:20:33;;;;;;;6.30;2.37;;;;;;;35.51;21.88;98333.22;6975164;28;20609;-81
2023/07/19 12:23:55;;;;;;;4.13;2.47;;;;;;;35.80;21.10;98334.44;6962679;28;20203;-81
2023/07/19 12:27:17;;;;;;;4.97;2.20;;;;;;;36.39;20.34;98317.50;6947451;28;20240;-81
2023/07/19 12:30:39;;;;;;;4.10;2.40;;;;;;;35.21;20.72;98317.50;6947890;28;20728;-81
2023/07/19 12:34:00;;;;;;;5.20;2.17;;;;;;;36.13;21.41;98295.94;6946184;28;20222;-82
2023/07/19 12:37:23;;;;;;;4.17;2.63;;;;;;;36.41;20.89;98292.66;6945305;28;20855;-82
2023/07/19 12:40:45;;;;;;;3.53;2.23;;;;;;;36.66;20.23;98282.50;6946450;28;20239;-82
2023/07/19 12:44:07;;;;;;;5.90;2.57;;;;;;;36.71;20.53;98282.94;6946085;28;20214;-82
2023/07/19 12:47:28;;;;;;;3.07;2.43;;;;;;;36.15;21.99;98279.53;6946232;28;20727;-83
2023/07/19 12:50:50;;;;;;;3.67;2.23;;;;;;;36.40;20.31;98286.25;6945600;28;20326;-85
2023/07/19 12:54:13;;;;;;;4.43;2.40;;;;;;;35.15;21.14;98289.00;6945481;28;20369;-83
2023/07/19 12:57:35;;;;;;;4.70;2.40;;;;;;;36.69;19.61;98281.69;6944803;28;20207;-83
2023/07/19 13:00:56;;;;;;;4.77;2.57;;;;;;;37.11;19.84;98274.44;6944947;28;20313;-83
2023/07/19 13:04:18;;;;;;;6.50;2.63;;;;;;;36.39;19.61;98259.34;6945375;28;20329;-83
2023/07/19 13:07:39;;;;;;;8.30;2.50;;;;;;;36.21;20.52;98264.00;6952501;28;20674;-83
2023/07/19 13:11:02;;;;;;;3.27;2.43;;;;;;;36.18;21.35;98266.72;6944851;28;20223;-83
2023/07/19 13:14:24;;;;;;;4.83;2.50;;;;;;;36.84;20.21;98261.75;6943855;28;20349;-83
2023/07/19 13:17:45;;;;;;;5.77;3.10;;;;;;;36.22;20.59;98212.25;6952427;28;20230;-84
2023/07/19 13:21:07;;;;;;;5.20;2.90;;;;;;;36.01;20.48;98256.13;6968999;28;20588;-82
2023/07/19 13:24:30;;;;;;;7.30;2.70;;;;;;;35.94;20.94;98270.06;6944242;28;20214;-84
2023/07/19 13:27:53;;;;;;;5.07;2.70;;;;;;;34.91;22.07;98168.13;6944073;28;20237;-83
2023/07/19 13:31:14;;;;;;;9.23;2.87;;;;;;;34.93;22.80;98287.06;6946582;28;20298;-83
2023/07/19 13:34:36;;;;;;;11.60;3.70;;;;;;;34.36;23.02;98286.47;6954840;28;20289;-82
2023/07/19 13:37:57;;;;;;;7.30;3.50;;;;;;;34.09;23.65;98276.31;6969838;28;20716;-82
2023/07/19 13:41:19;;;;;;;7.37;2.93;;;;;;;34.30;24.05;98288.75;6970522;28;20264;-81
2023/07/19 13:44:42;;;;;;;5.37;3.17;;;;;;;34.42;22.85;98203.78;6962252;28;20207;-82
2023/07/19 13:48:03;;;;;;;3.83;3.37;;;;;;;35.14;22.08;98278.16;6951972;28;20232;-81
2023/07/19 13:51:25;;;;;;;5.70;3.50;;;;;;;35.14;22.75;98267.75;6949234;28;20273;-82
2023/07/19 13:54:46;;;;;;;6.90;3.63;;;;;;;35.65;22.44;98280.09;6943432;28;20227;-83
2023/07/19 13:58:08;;;;;;;5.00;3.30;;;;;;;35.27;23.25;98263.59;6952032;28;20211;-82
2023/07/19 14:01:31;;;;;;;3.53;3.00;;;;;;;35.74;22.64;98265.81;6965459;28;20210;-83
2023/07/19 14:04:52;;;;;;;6.07;3.30;;;;;;;35.25;23.64;98276.38;6958367;28;20789;-84
2023/07/19 14:08:14;;;;;;;3.87;3.13;;;;;;;35.65;23.21;98271.69;6969504;28;20379;-82
2023/07/19 14:11:35;;;;;;;4.10;3.40;;;;;;;34.90;24.11;98271.00;6970236;28;20267;-82
2023/07/19 14:14:57;;;;;;;4.37;3.07;;;;;;;34.40;24.42;98260.13;6952586;28;20293;-81
2023/07/19 14:18:20;;;;;;;9.13;3.17;;;;;;;34.19;25.31;98276.50;6970602;28;20621;-81
2023/07/19 14:21:41;;;;;;;6.03;3.17;;;;;;;34.67;24.57;98263.78;6973033;28;20672;-81
2023/07/19 14:25:03;;;;;;;6.83;3.77;;;;;;;34.56;24.66;98263.63;6965818;28;20199;-81
2023/07/19 14:28:24;;;;;;;4.40;3.03;;;;;;;33.19;28.03;98276.78;6970716;28;20226;-82
2023/07/19 14:31:46;;;;;;;9.20;3.40;;;;;;;32.26;30.07;98268.47;6969949;28;20269;-82
2023/07/19 14:35:10;;;;;;;10.73;3.30;;;;;;;33.04;29.55;98266.47;6970577;28;20338;-82
2023/07/19 14:38:31;;;;;;;5.90;2.50;;;;;;;33.25;28.61;98277.31;6968595;28;20724;-81
2023/07/19 14:41:54;;;;;;;6.07;3.63;;;;;;;33.21;28.49;98263.25;6969411;28;20217;-83
2023/07/19 14:45:15;;;;;;;5.50;2.80;;;;;;;32.32;29.94;98280.97;6970818;28;20209;-83
2023/07/19 14:48:37;;;;;;;5.33;2.93;;;;;;;32.35;30.08;98276.66;6968632;28;20320;-83
2023/07/19 14:52:00;;;;;;;3.00;2.80;;;;;;;32.91;28.86;98273.31;6941754;28;20233;-82
2023/07/19 14:55:21;;;;;;;6.03;2.90;;;;;;;33.45;28.30;98276.19;6952564;28;20208;-82
2023/07/19 14:58:43;;;;;;;6.83;3.37;;;;;;;33.62;28.23;98239.38;6956479;28;20834;-81
2023/07/19 15:02:06;;;;;;;3.93;3.10;;;;;;;33.33;28.53;98267.94;6961550;28;20195;-80
2023/07/19 15:05:29;;;;;;;8.43;3.47;;;;;;;33.78;28.98;98263.31;6980314;28;20221;-81
2023/07/19 15:08:52;;;;;;;4.20;2.30;;;;;;;33.91;28.07;98266.78;6978795;28;20359;-81
2023/07/19 15:12:14;;;;;;;6.27;3.37;;;;;;;34.15;27.40;98269.25;6973723;28;20230;-81
2023/07/19 15:15:36;;;;;;;3.60;3.13;;;;;;;34.08;27.94;98258.72;6975253;28;20549;-81
2023/07/19 15:18:57;;;;;;;5.37;3.00;;;;;;;33.57;26.27;98262.88;6952253;28;20233;-84
2023/07/19 15:22:19;;;;;;;4.77;3.27;;;;;;;33.62;25.44;98240.22;6972118;28;20268;-80
2023/07/19 15:25:42;;;;;;;6.23;3.20;;;;;;;33.77;25.29;98264.50;6945652;28;20222;-80
2023/07/19 15:29:03;;;;;;;6.00;3.10;;;;;;;33.41;24.97;98227.75;6944908;28;20226;-79
2023/07/19 15:32:25;;;;;;;4.73;3.40;;;;;;;33.40;23.66;98257.72;6945717;28;20298;-79
2023/07/19 15:35:46;;;;;;;10.43;3.73;;;;;;;33.13;24.47;98244.69;6952737;28;20206;-81
2023/07/19 15:39:08;;;;;;;4.53;3.03;;;;;;;33.30;24.69;98232.34;6978190;28;20234;-81
2023/07/19 15:42:31;;;;;;;3.83;2.83;;;;;;;32.71;25.40;98262.41;6976442;28;20214;-83
2023/07/19 15:45:52;;;;;;;5.90;3.20;;;;;;;33.37;25.41;98260.44;6967386;28;20218;-81
2023/07/19 15:49:14;;;;;;;6.03;3.47;;;;;;;33.38;24.84;98248.88;6971722;28;20317;-81
2023/07/19 15:52:36;;;;;;;6.13;3.20;;;;;;;33.37;25.06;98249.25;6966941;28;20643;-81
2023/07/19 15:55:58;;;;;;;4.13;3.33;;;;;;;33.68;25.04;98249.09;6970523;28;20199;-81
2023/07/19 15:59:20;;;;;;;4.33;3.33;;;;;;;33.13;25.28;98241.13;6951775;28;20312;-83
2023/07/19 16:02:42;;;;;;;3.97;3.07;;;;;;;33.21;25.05;98237.28;6971295;28;20262;-81